Villa Flores, Puerto Rico
Current Conditions -  °F | °C
As of 7:53 PM on Sunday 21 Dec 2014 (Local Time) from TJNR Reporting Station
Few Clouds Few Clouds  
Wind Chill: 26°   Ceiling: Unl
Heat Index: 27°   Visibility: 10mi
Dew Point: 19°   Wind: 6mph
Humidity: 68%   Direction: 60°ENE
Pressure: 30.08"   Gusts: NA
Location:  18.2667°N, 65.6476°W
Report Text: TJNR 212353Z AUTO 06005KT 10SM FEW032 26/19 A3008 RMK AO2 SLP186 T02560194 10283 20256 53012 $
Loading
Personal Weather Stations






























Interactive Weather Map New forecast layout! Learn more

10-Day Weather Forecast

Advertisements
Track Severe Weather on mobile